createdAt,value
2023-03-16T00:02:22.174Z,13.55
2023-03-16T00:04:50.330Z,16.23
2023-03-16T00:07:18.882Z,15.27
2023-03-16T00:09:46.801Z,17.45
2023-03-16T00:12:17.129Z,12.80
2023-03-16T00:14:46.944Z,13.00
2023-03-16T00:17:21.018Z,12.13
2023-03-16T00:19:57.334Z,16.15
2023-03-16T00:22:29.950Z,11.80
2023-03-16T00:24:58.484Z,14.23
2023-03-16T00:27:26.705Z,12.93
2023-03-16T00:29:57.608Z,12.90
2023-03-16T00:32:28.209Z,12.07
2023-03-16T00:34:56.589Z,13.60
2023-03-16T00:37:26.166Z,13.13
2023-03-16T00:39:57.386Z,14.90
2023-03-16T00:42:27.760Z,11.10
2023-03-16T00:44:57.160Z,15.15
2023-03-16T00:47:30.704Z,13.43
2023-03-16T00:49:58.950Z,10.98
2023-03-16T00:52:27.641Z,12.38
2023-03-16T00:54:55.974Z,10.77
2023-03-16T00:57:25.916Z,12.30
2023-03-16T00:59:53.918Z,11.60
2023-03-16T01:02:24.797Z,11.85
2023-03-16T01:04:54.658Z,10.77
2023-03-16T01:07:22.968Z,10.48
2023-03-16T01:09:52.134Z,10.38
2023-03-16T01:12:20.040Z,15.30
2023-03-16T01:14:48.086Z,11.20
2023-03-16T01:17:17.446Z,12.77
2023-03-16T01:19:45.869Z,11.15
2023-03-16T01:22:14.024Z,11.30
2023-03-16T01:24:42.690Z,11.60
2023-03-16T01:27:10.667Z,11.23
2023-03-16T01:29:38.900Z,12.88
2023-03-16T01:32:07.435Z,13.23
2023-03-16T01:34:35.248Z,12.45
2023-03-16T01:37:04.285Z,13.27
2023-03-16T01:39:43.665Z,14.48
2023-03-16T01:42:12.338Z,15.93
2023-03-16T01:44:52.927Z,15.57
2023-03-16T01:47:22.349Z,16.00
2023-03-16T01:49:55.011Z,17.45
2023-03-16T01:52:33.345Z,17.42
2023-03-16T01:55:05.891Z,20.27
2023-03-16T01:57:37.073Z,18.60
2023-03-16T02:00:23.503Z,14.25
2023-03-16T02:03:16.832Z,15.63
2023-03-16T02:06:03.293Z,18.25
2023-03-16T02:08:33.437Z,18.83
2023-03-16T02:11:01.247Z,20.90
2023-03-16T02:13:49.804Z,20.25
2023-03-16T02:16:19.610Z,22.00
2023-03-16T02:18:51.603Z,25.02
2023-03-16T02:21:25.497Z,21.30
2023-03-16T02:23:53.500Z,21.02
2023-03-16T02:26:24.060Z,18.65
2023-03-16T02:29:39.777Z,19.15
2023-03-16T02:32:08.792Z,22.15
2023-03-16T02:34:36.518Z,20.42
2023-03-16T02:37:05.718Z,25.92
2023-03-16T02:39:34.490Z,20.33
2023-03-16T02:42:02.924Z,22.85
2023-03-16T02:44:40.730Z,20.15
2023-03-16T02:47:22.171Z,21.48
2023-03-16T02:49:50.259Z,21.77
2023-03-16T02:52:18.097Z,18.05
2023-03-16T02:54:46.033Z,19.00
2023-03-16T02:57:14.212Z,21.75
2023-03-16T02:59:42.531Z,19.00
2023-03-16T03:02:11.482Z,21.67
2023-03-16T03:04:39.569Z,18.83
2023-03-16T03:07:08.016Z,19.33
2023-03-16T03:09:53.741Z,22.85
2023-03-16T03:12:22.101Z,15.90
2023-03-16T03:14:49.998Z,20.20
2023-03-16T03:17:20.513Z,14.77
2023-03-16T03:19:48.469Z,17.88
2023-03-16T03:22:18.696Z,17.50
2023-03-16T03:24:46.381Z,15.82
2023-03-16T03:27:14.895Z,16.77
2023-03-16T03:29:44.654Z,19.85
2023-03-16T03:32:12.535Z,18.70
2023-03-16T03:34:40.198Z,15.70
2023-03-16T03:37:08.172Z,17.33
2023-03-16T03:39:36.724Z,19.25
2023-03-16T03:42:04.815Z,15.23
2023-03-16T03:44:37.542Z,13.20
2023-03-16T03:47:05.931Z,15.10
2023-03-16T03:49:33.915Z,11.98
2023-03-16T03:52:04.715Z,13.75
2023-03-16T03:54:32.414Z,13.70
2023-03-16T03:57:05.075Z,12.07
2023-03-16T03:59:33.057Z,20.05
2023-03-16T04:02:11.979Z,13.82
2023-03-16T04:04:48.324Z,13.23
2023-03-16T04:07:16.350Z,13.88
2023-03-16T04:09:45.955Z,14.45
2023-03-16T04:12:43.065Z,12.85
2023-03-16T04:15:13.099Z,12.63
2023-03-16T04:17:54.375Z,11.63
2023-03-16T04:20:23.615Z,11.95
2023-03-16T04:22:58.425Z,9.98
2023-03-16T04:25:27.600Z,10.13
2023-03-16T04:27:55.889Z,10.60
2023-03-16T04:30:27.711Z,11.50
2023-03-16T04:33:04.448Z,13.02
2023-03-16T04:35:32.229Z,15.73
2023-03-16T04:38:00.236Z,13.77
2023-03-16T04:40:37.442Z,9.15
2023-03-16T04:43:13.620Z,10.27
2023-03-16T04:45:42.250Z,8.07
2023-03-16T04:48:10.494Z,9.15
2023-03-16T04:50:39.276Z,8.75
2023-03-16T04:53:07.023Z,9.70
2023-03-16T04:55:35.364Z,7.97
2023-03-16T04:58:04.040Z,9.45
2023-03-16T05:03:10.263Z,8.93
2023-03-16T05:05:39.035Z,9.30
2023-03-16T05:08:07.227Z,9.63
2023-03-16T05:10:37.000Z,10.27
2023-03-16T05:13:06.005Z,9.50
2023-03-16T05:15:34.595Z,10.77
2023-03-16T05:18:16.410Z,10.68
2023-03-16T05:20:44.582Z,9.77
2023-03-16T05:23:12.564Z,7.72
2023-03-16T05:25:48.172Z,9.60
2023-03-16T05:28:18.331Z,8.52
2023-03-16T05:30:52.183Z,8.73
2023-03-16T05:33:25.666Z,7.43
2023-03-16T05:36:00.277Z,8.25
2023-03-16T05:38:28.139Z,7.43
2023-03-16T05:41:02.202Z,8.40
2023-03-16T05:43:45.393Z,8.23
2023-03-16T05:46:14.507Z,7.80
2023-03-16T05:48:43.048Z,7.90
2023-03-16T05:51:14.303Z,8.60
2023-03-16T05:53:42.929Z,6.85
2023-03-16T05:56:18.246Z,7.40
2023-03-16T05:58:47.377Z,6.65
2023-03-16T06:01:16.300Z,7.50
2023-03-16T06:03:44.716Z,6.47
2023-03-16T06:06:19.766Z,9.07
2023-03-16T06:09:03.207Z,5.50
2023-03-16T06:11:32.982Z,6.00
2023-03-16T06:14:01.360Z,9.15
2023-03-16T06:16:29.370Z,5.05
2023-03-16T06:18:59.557Z,4.72
2023-03-16T06:21:28.352Z,6.93
2023-03-16T06:24:01.693Z,6.30
2023-03-16T06:26:29.842Z,7.72
2023-03-16T06:28:58.124Z,7.47
2023-03-16T06:31:26.192Z,7.60
2023-03-16T06:33:54.154Z,7.35
2023-03-16T06:36:22.036Z,10.68
2023-03-16T06:38:54.293Z,9.38
2023-03-16T06:41:45.051Z,10.45
2023-03-16T06:44:15.244Z,9.63
2023-03-16T06:46:53.370Z,9.75
2023-03-16T06:49:21.295Z,8.18
2023-03-16T06:51:49.499Z,12.27
2023-03-16T06:54:17.797Z,8.88
2023-03-16T06:56:46.396Z,12.15
2023-03-16T06:59:14.213Z,7.82
2023-03-16T07:01:42.421Z,9.15
2023-03-16T07:04:10.290Z,14.77
2023-03-16T07:06:38.613Z,7.43
2023-03-16T07:09:06.861Z,9.88
2023-03-16T07:11:35.965Z,13.07
2023-03-16T07:14:03.842Z,9.75
2023-03-16T07:16:33.344Z,10.10
2023-03-16T07:19:04.698Z,9.77
2023-03-16T07:21:39.240Z,7.60
2023-03-16T07:24:10.997Z,11.52
2023-03-16T07:26:39.631Z,9.95
2023-03-16T07:29:09.715Z,9.32
2023-03-16T07:31:38.197Z,8.43
2023-03-16T07:34:11.715Z,11.60
2023-03-16T07:36:44.363Z,13.63
2023-03-16T07:39:14.406Z,12.27
2023-03-16T07:41:42.968Z,10.10
2023-03-16T07:44:31.636Z,9.93
2023-03-16T07:47:00.281Z,7.97
2023-03-16T07:49:30.646Z,12.38
2023-03-16T07:52:00.227Z,11.98
2023-03-16T07:54:36.178Z,11.15
2023-03-16T07:57:06.455Z,7.85
2023-03-16T07:59:39.506Z,8.77
2023-03-16T08:02:16.107Z,10.20
2023-03-16T08:04:44.695Z,8.27
2023-03-16T08:07:15.672Z,6.38
2023-03-16T08:09:54.330Z,5.55
2023-03-16T08:12:31.916Z,6.75
2023-03-16T08:15:00.301Z,8.57
2023-03-16T08:17:31.557Z,7.53
2023-03-16T08:20:01.383Z,9.65
2023-03-16T08:22:30.888Z,5.10
2023-03-16T08:24:58.592Z,8.65
2023-03-16T08:27:29.286Z,11.20
2023-03-16T08:30:05.053Z,8.25
2023-03-16T08:32:34.777Z,8.20
2023-03-16T08:35:04.106Z,8.73
2023-03-16T08:37:32.006Z,8.30
2023-03-16T08:40:00.614Z,7.97
2023-03-16T08:42:30.221Z,8.18
2023-03-16T08:45:12.252Z,10.00
2023-03-16T08:47:42.714Z,7.90
2023-03-16T08:50:15.666Z,14.63
2023-03-16T08:55:11.549Z,7.93
2023-03-16T08:57:39.419Z,9.45
2023-03-16T09:00:14.517Z,6.30
2023-03-16T09:02:42.897Z,9.40
2023-03-16T09:05:13.080Z,11.23
2023-03-16T09:07:42.670Z,6.07
2023-03-16T09:10:14.493Z,6.78
2023-03-16T09:12:43.560Z,7.05
2023-03-16T09:15:13.837Z,11.30
2023-03-16T09:17:42.168Z,10.35
2023-03-16T09:20:21.963Z,8.00
2023-03-16T09:22:58.906Z,8.50
2023-03-16T09:25:27.003Z,7.20
2023-03-16T09:27:54.708Z,9.05
2023-03-16T09:30:22.927Z,10.15
2023-03-16T09:32:50.866Z,7.50
2023-03-16T09:35:19.564Z,6.22
2023-03-16T09:38:04.794Z,10.10
2023-03-16T09:40:36.110Z,10.13
2023-03-16T09:43:23.901Z,9.50
2023-03-16T09:45:51.565Z,11.48
2023-03-16T09:48:21.700Z,7.63
2023-03-16T09:50:50.302Z,9.85
2023-03-16T09:53:23.431Z,8.18
2023-03-16T09:55:58.412Z,7.05
2023-03-16T09:58:27.171Z,8.73
2023-03-16T10:01:12.149Z,8.95
2023-03-16T10:04:00.310Z,10.65
2023-03-16T10:06:28.959Z,6.68
2023-03-16T10:09:21.263Z,10.95
2023-03-16T10:11:54.170Z,8.85
2023-03-16T10:14:28.061Z,5.18
2023-03-16T10:17:17.844Z,9.18
2023-03-16T10:20:17.431Z,8.65
2023-03-16T10:22:48.005Z,8.52
2023-03-16T10:25:40.879Z,8.98
2023-03-16T10:28:15.823Z,5.90
2023-03-16T10:30:44.207Z,10.38
2023-03-16T10:33:27.033Z,13.80
2023-03-16T10:36:15.537Z,10.70
2023-03-16T10:38:50.823Z,11.13
2023-03-16T10:41:18.412Z,11.43
2023-03-16T10:43:51.856Z,13.95
2023-03-16T10:46:20.126Z,7.72
2023-03-16T10:49:00.466Z,7.20
2023-03-16T10:51:31.322Z,10.38
2023-03-16T10:54:40.030Z,9.35
2023-03-16T10:57:25.540Z,7.20
2023-03-16T10:59:56.796Z,9.05
2023-03-16T11:02:32.600Z,10.15
2023-03-16T11:05:01.667Z,9.45
2023-03-16T11:07:29.113Z,8.85
2023-03-16T11:09:58.727Z,11.07
2023-03-16T11:12:28.970Z,10.90
2023-03-16T11:15:20.156Z,9.60
2023-03-16T11:17:53.659Z,8.43
2023-03-16T11:20:26.489Z,8.10
2023-03-16T11:22:54.520Z,10.75
2023-03-16T11:25:30.547Z,8.80
2023-03-16T11:28:17.002Z,13.48
2023-03-16T11:30:54.357Z,10.55
2023-03-16T11:33:23.085Z,10.02
2023-03-16T11:36:29.929Z,13.70
2023-03-16T11:39:14.142Z,11.48
2023-03-16T11:41:42.064Z,8.93
2023-03-16T11:44:10.016Z,7.35
2023-03-16T11:47:06.197Z,7.75
2023-03-16T11:50:00.365Z,6.28
2023-03-16T11:52:46.793Z,8.63
2023-03-16T11:55:27.219Z,7.85
2023-03-16T11:58:19.059Z,10.70
2023-03-16T12:01:04.387Z,9.68
2023-03-16T12:03:41.187Z,8.18
2023-03-16T12:06:39.106Z,8.30
2023-03-16T12:09:25.082Z,7.63
2023-03-16T12:11:52.671Z,7.65
2023-03-16T12:14:39.616Z,9.60
2023-03-16T12:17:22.452Z,10.38
2023-03-16T12:19:56.416Z,6.90
2023-03-16T12:22:38.197Z,7.63
2023-03-16T12:27:41.356Z,11.18
2023-03-16T12:30:46.472Z,7.82
2023-03-16T12:33:50.221Z,7.13
2023-03-16T12:36:18.195Z,4.82
2023-03-16T12:39:07.486Z,8.25
2023-03-16T12:41:52.905Z,6.88
2023-03-16T12:44:44.589Z,6.47
2023-03-16T12:48:06.433Z,7.47
2023-03-16T12:50:34.501Z,9.88
2023-03-16T12:53:02.058Z,5.30
2023-03-16T12:55:39.171Z,4.32
2023-03-16T12:58:08.694Z,6.00
2023-03-16T13:00:42.686Z,6.82
2023-03-16T13:03:21.360Z,2.55
2023-03-16T13:06:00.826Z,5.72
2023-03-16T13:08:40.465Z,4.72
2023-03-16T13:11:12.237Z,7.00
2023-03-16T13:14:08.372Z,10.40
2023-03-16T13:16:37.972Z,7.22
2023-03-16T13:19:26.385Z,8.02
2023-03-16T13:22:04.149Z,6.65
2023-03-16T13:24:40.112Z,7.82
2023-03-16T13:27:20.214Z,4.72
2023-03-16T13:29:55.529Z,4.57
2023-03-16T13:32:27.337Z,7.32
2023-03-16T13:34:59.178Z,4.55
2023-03-16T13:37:29.427Z,2.50
2023-03-16T13:40:02.295Z,3.50
2023-03-16T13:42:32.567Z,3.63
2023-03-16T13:45:13.154Z,6.68
2023-03-16T13:47:44.169Z,9.60
2023-03-16T13:50:13.911Z,4.53
2023-03-16T13:52:44.300Z,5.88
2023-03-16T13:55:22.931Z,5.85
2023-03-16T13:57:50.641Z,6.40
2023-03-16T14:00:22.435Z,6.72
2023-03-16T14:02:56.302Z,6.63
2023-03-16T14:05:30.383Z,6.25
2023-03-16T14:08:00.645Z,3.28
2023-03-16T14:10:33.518Z,7.45
2023-03-16T14:13:10.325Z,4.88
2023-03-16T14:15:38.765Z,6.15
2023-03-16T14:18:22.572Z,5.90
2023-03-16T14:20:54.902Z,5.38
2023-03-16T14:23:29.609Z,3.42
2023-03-16T14:25:57.476Z,5.85
2023-03-16T14:28:33.379Z,8.07
2023-03-16T14:31:11.884Z,6.45
2023-03-16T14:33:42.879Z,7.38
2023-03-16T14:36:19.716Z,7.43
2023-03-16T14:38:48.861Z,7.88
2023-03-16T14:41:25.896Z,8.05
2023-03-16T14:44:01.831Z,6.53
2023-03-16T14:46:43.007Z,7.45
2023-03-16T14:49:31.248Z,9.95
2023-03-16T14:52:11.781Z,6.88
2023-03-16T14:54:39.890Z,4.72
2023-03-16T14:57:07.384Z,7.45
2023-03-16T14:59:35.041Z,5.38
2023-03-16T15:02:06.933Z,5.90
2023-03-16T15:04:36.470Z,10.30
2023-03-16T15:07:20.659Z,7.13
2023-03-16T15:09:49.581Z,9.15
2023-03-16T15:12:19.637Z,7.25
2023-03-16T15:15:06.922Z,12.48
2023-03-16T15:17:34.926Z,7.53
2023-03-16T15:20:03.309Z,11.75
2023-03-16T15:22:33.784Z,6.68
2023-03-16T15:25:24.797Z,7.68
2023-03-16T15:27:54.131Z,6.93
2023-03-16T15:30:24.810Z,11.07
2023-03-16T15:32:53.183Z,6.07
2023-03-16T15:35:21.297Z,6.10
2023-03-16T15:37:49.375Z,9.70
2023-03-16T15:40:21.616Z,7.53
2023-03-16T15:42:49.801Z,9.70
2023-03-16T15:45:20.698Z,6.60
2023-03-16T15:47:50.187Z,9.13
2023-03-16T15:50:20.589Z,9.38
2023-03-16T15:53:20.508Z,9.30
2023-03-16T15:56:03.005Z,8.70
2023-03-16T15:58:32.571Z,11.10
2023-03-16T16:01:01.850Z,10.48
2023-03-16T16:03:30.041Z,7.82
2023-03-16T16:05:57.546Z,7.57
2023-03-16T16:08:25.246Z,12.10
2023-03-16T16:10:53.638Z,11.50
2023-03-16T16:13:37.604Z,12.13
2023-03-16T16:16:17.798Z,12.70
2023-03-16T16:18:46.686Z,13.93
2023-03-16T16:21:19.615Z,10.30
2023-03-16T16:23:47.966Z,11.00
2023-03-16T16:26:54.936Z,17.70
2023-03-16T16:29:25.685Z,11.15
2023-03-16T16:31:53.787Z,13.32
2023-03-16T16:34:24.655Z,11.77
2023-03-16T16:36:54.342Z,14.23
2023-03-16T16:39:22.497Z,10.95
2023-03-16T16:41:55.075Z,11.23
2023-03-16T16:44:25.639Z,13.50
2023-03-16T16:46:54.101Z,13.20
2023-03-16T16:49:24.200Z,9.40
2023-03-16T16:51:52.807Z,8.68
2023-03-16T16:54:30.121Z,9.63
2023-03-16T16:56:59.699Z,8.93
2023-03-16T16:59:33.335Z,11.98
2023-03-16T17:02:03.296Z,8.25
2023-03-16T17:04:30.944Z,9.18
2023-03-16T17:07:01.953Z,9.40
2023-03-16T17:09:30.321Z,9.85
2023-03-16T17:12:01.067Z,8.20
2023-03-16T17:14:31.048Z,14.00
2023-03-16T17:17:05.157Z,9.93
2023-03-16T17:19:33.035Z,13.38
2023-03-16T17:22:01.492Z,12.65
2023-03-16T17:24:29.759Z,17.52
2023-03-16T17:27:01.339Z,11.50
2023-03-16T17:29:34.534Z,16.88
2023-03-16T17:32:08.947Z,13.93
2023-03-16T17:34:38.049Z,13.05
2023-03-16T17:37:12.992Z,14.18
2023-03-16T17:39:41.835Z,8.75
2023-03-16T17:42:16.664Z,10.35
2023-03-16T17:44:47.613Z,10.38
2023-03-16T17:47:39.767Z,9.50
2023-03-16T17:50:29.529Z,9.60
2023-03-16T17:52:57.862Z,12.32
2023-03-16T17:55:25.378Z,12.60
2023-03-16T17:57:55.352Z,8.32
2023-03-16T18:00:36.718Z,10.52
2023-03-16T18:03:11.806Z,11.70
2023-03-16T18:05:39.839Z,7.65
2023-03-16T18:08:33.412Z,8.43
2023-03-16T18:11:04.276Z,7.32
2023-03-16T18:13:36.955Z,10.55
2023-03-16T18:16:06.380Z,11.23
2023-03-16T18:18:38.414Z,10.85
2023-03-16T18:21:06.549Z,11.95
2023-03-16T18:23:35.731Z,10.00
2023-03-16T18:26:04.083Z,10.05
2023-03-16T18:28:32.680Z,8.98
2023-03-16T18:31:01.515Z,10.05
2023-03-16T18:33:41.116Z,11.82
2023-03-16T18:36:24.748Z,10.13
2023-03-16T18:38:53.806Z,7.90
2023-03-16T18:41:29.196Z,10.18
2023-03-16T18:43:59.741Z,10.10
2023-03-16T18:46:33.331Z,9.00
2023-03-16T18:49:16.780Z,10.55
2023-03-16T18:51:48.283Z,8.00
2023-03-16T18:54:21.401Z,9.23
2023-03-16T18:56:49.666Z,11.43
2023-03-16T18:59:17.390Z,12.32
2023-03-16T19:01:46.984Z,11.82
2023-03-16T19:04:22.164Z,13.30
2023-03-16T19:06:52.113Z,8.93
2023-03-16T19:09:21.836Z,10.68
2023-03-16T19:11:49.967Z,9.63
2023-03-16T19:14:18.531Z,12.07
2023-03-16T19:16:46.664Z,12.27
2023-03-16T19:19:15.510Z,13.65
2023-03-16T19:21:43.810Z,11.73
2023-03-16T19:24:33.708Z,10.30
2023-03-16T19:27:02.041Z,10.40
2023-03-16T19:29:33.192Z,11.57
2023-03-16T19:32:01.790Z,11.43
2023-03-16T19:34:29.864Z,11.65
2023-03-16T19:36:57.413Z,9.82
2023-03-16T19:39:25.847Z,11.48
2023-03-16T19:41:58.953Z,12.63
2023-03-16T19:44:28.560Z,10.10
2023-03-16T19:46:56.553Z,13.63
2023-03-16T19:49:27.064Z,10.45
2023-03-16T19:51:55.820Z,10.98
2023-03-16T19:54:27.819Z,12.70
2023-03-16T19:56:58.009Z,11.20
2023-03-16T19:59:31.149Z,14.88
2023-03-16T20:01:59.124Z,12.18
2023-03-16T20:04:27.770Z,11.80
2023-03-16T20:06:55.894Z,13.68
2023-03-16T20:09:23.445Z,15.20
2023-03-16T20:11:51.272Z,13.65
2023-03-16T20:14:24.004Z,12.15
2023-03-16T20:16:53.231Z,12.52
2023-03-16T20:19:22.336Z,11.23
2023-03-16T20:21:52.269Z,13.20
2023-03-16T20:24:24.556Z,12.75
2023-03-16T20:26:54.124Z,17.52
2023-03-16T20:29:31.179Z,12.25
2023-03-16T20:31:59.881Z,14.07
2023-03-16T20:34:31.465Z,12.80
2023-03-16T20:37:00.596Z,13.98
2023-03-16T20:39:28.315Z,13.50
2023-03-16T20:41:57.244Z,11.85
2023-03-16T20:44:26.596Z,15.02
2023-03-16T20:46:54.416Z,13.52
2023-03-16T20:49:22.560Z,17.42
2023-03-16T20:51:50.876Z,13.38
2023-03-16T20:54:18.589Z,13.80
2023-03-16T20:56:46.914Z,13.80
2023-03-16T20:59:21.880Z,14.18
2023-03-16T21:01:50.421Z,12.98
2023-03-16T21:04:22.468Z,15.00
2023-03-16T21:06:51.395Z,13.02
2023-03-16T21:09:21.206Z,17.05
2023-03-16T21:11:49.554Z,12.55
2023-03-16T21:14:21.534Z,14.32
2023-03-16T21:16:50.234Z,13.32
2023-03-16T21:19:21.111Z,12.35
2023-03-16T21:21:48.891Z,17.85
2023-03-16T21:24:16.917Z,16.13
2023-03-16T21:26:47.489Z,14.57
2023-03-16T21:29:21.210Z,15.38
2023-03-16T21:31:49.577Z,13.25
2023-03-16T21:34:28.291Z,12.85
2023-03-16T21:36:56.427Z,13.50
2023-03-16T21:39:25.335Z,13.80
2023-03-16T21:41:53.712Z,13.32
2023-03-16T21:44:21.505Z,16.70
2023-03-16T21:46:49.626Z,12.68
2023-03-16T21:49:18.044Z,14.52
2023-03-16T21:51:46.055Z,14.13
2023-03-16T21:54:15.303Z,14.18
2023-03-16T21:56:44.089Z,13.93
2023-03-16T21:59:12.160Z,17.13
2023-03-16T22:01:54.251Z,14.18
2023-03-16T22:04:28.302Z,16.13
2023-03-16T22:06:56.254Z,13.05
2023-03-16T22:09:25.029Z,14.10
2023-03-16T22:11:52.605Z,14.18
2023-03-16T22:14:20.338Z,14.90
2023-03-16T22:16:48.239Z,12.95
2023-03-16T22:19:17.785Z,14.52
2023-03-16T22:21:47.157Z,14.95
2023-03-16T22:24:24.828Z,15.35
2023-03-16T22:26:53.642Z,14.95
2023-03-16T22:29:33.708Z,14.98
2023-03-16T22:32:08.564Z,14.60
2023-03-16T22:34:46.301Z,16.85
2023-03-16T22:37:20.255Z,14.82
2023-03-16T22:39:48.703Z,14.25
2023-03-16T22:42:16.640Z,16.27
2023-03-16T22:44:44.529Z,16.73
2023-03-16T22:47:29.326Z,14.93
2023-03-16T22:49:56.961Z,18.02
2023-03-16T22:52:29.781Z,14.95
2023-03-16T22:55:00.171Z,17.10
2023-03-16T22:57:29.652Z,16.27
2023-03-16T22:59:58.850Z,14.88
2023-03-16T23:02:27.819Z,16.92
2023-03-16T23:04:56.270Z,15.77
2023-03-16T23:07:24.170Z,16.25
2023-03-16T23:09:52.400Z,16.00
2023-03-16T23:12:21.820Z,16.17
2023-03-16T23:14:49.959Z,16.38
2023-03-16T23:17:19.741Z,16.13
2023-03-16T23:19:50.700Z,14.90
2023-03-16T23:22:18.346Z,16.17
2023-03-16T23:24:46.317Z,17.98
2023-03-16T23:27:19.190Z,16.35
2023-03-16T23:29:46.989Z,16.52
2023-03-16T23:32:17.130Z,18.20
2023-03-16T23:34:45.335Z,17.73
2023-03-16T23:37:12.851Z,15.82
2023-03-16T23:39:40.672Z,17.10
2023-03-16T23:42:09.235Z,16.15
2023-03-16T23:44:37.208Z,15.68
2023-03-16T23:47:04.893Z,15.98
2023-03-16T23:49:36.966Z,16.27
2023-03-16T23:52:05.417Z,16.90
2023-03-16T23:54:33.381Z,16.10
2023-03-16T23:57:01.155Z,14.82
2023-03-16T23:59:28.759Z,16.38
